createdAt,value
2023-01-13T00:00:53.082Z,23.60
2023-01-13T00:03:20.782Z,23.36
2023-01-13T00:05:48.623Z,23.33
2023-01-13T00:08:16.009Z,23.29
2023-01-13T00:10:46.515Z,22.74
2023-01-13T00:13:13.931Z,22.80
2023-01-13T00:15:41.286Z,22.78
2023-01-13T00:18:08.607Z,22.63
2023-01-13T00:20:35.979Z,23.08
2023-01-13T00:23:04.547Z,23.65
2023-01-13T00:25:31.799Z,23.62
2023-01-13T00:27:59.137Z,23.29
2023-01-13T00:30:26.421Z,23.11
2023-01-13T00:32:54.173Z,23.81
2023-01-13T00:35:21.466Z,23.47
2023-01-13T00:37:48.827Z,23.12
2023-01-13T00:40:16.191Z,23.01
2023-01-13T00:43:02.095Z,23.14
2023-01-13T00:45:29.427Z,22.88
2023-01-13T00:48:02.546Z,22.53
2023-01-13T00:50:30.718Z,23.24
2023-01-13T00:53:00.941Z,22.85
2023-01-13T00:55:30.651Z,22.63
2023-01-13T00:58:03.424Z,22.99
2023-01-13T01:00:32.816Z,22.61
2023-01-13T01:03:00.179Z,22.56
2023-01-13T01:05:27.492Z,22.92
2023-01-13T01:07:54.921Z,22.82
2023-01-13T01:10:22.182Z,23.02
2023-01-13T01:12:51.021Z,22.98
2023-01-13T01:15:18.508Z,22.81
2023-01-13T01:17:45.809Z,23.11
2023-01-13T01:20:13.261Z,22.50
2023-01-13T01:22:40.926Z,22.58
2023-01-13T01:25:08.501Z,22.60
2023-01-13T01:27:35.856Z,22.84
2023-01-13T01:30:03.323Z,22.42
2023-01-13T01:32:30.737Z,22.24
2023-01-13T01:34:58.040Z,23.06
2023-01-13T01:37:25.405Z,22.69
2023-01-13T01:39:52.766Z,22.55
2023-01-13T01:42:38.507Z,23.17
2023-01-13T01:45:19.495Z,22.72
2023-01-13T01:47:48.537Z,22.46
2023-01-13T01:50:17.126Z,22.62
2023-01-13T01:52:47.633Z,22.66
2023-01-13T01:55:15.076Z,22.85
2023-01-13T01:57:48.774Z,22.56
2023-01-13T02:00:16.293Z,22.37
2023-01-13T02:02:45.252Z,22.57
2023-01-13T02:05:12.765Z,22.18
2023-01-13T02:07:41.748Z,22.81
2023-01-13T02:10:10.848Z,22.49
2023-01-13T02:12:39.571Z,22.21
2023-01-13T02:15:12.323Z,22.15
2023-01-13T02:17:40.193Z,22.43
2023-01-13T02:20:10.493Z,22.23
2023-01-13T02:22:56.199Z,22.18
2023-01-13T02:25:35.945Z,21.97
2023-01-13T02:28:14.565Z,22.14
2023-01-13T02:31:06.649Z,22.48
2023-01-13T02:33:41.510Z,22.26
2023-01-13T02:36:15.042Z,21.55
2023-01-13T02:38:50.278Z,22.38
2023-01-13T02:41:43.260Z,23.05
2023-01-13T02:44:11.246Z,22.91
2023-01-13T02:46:55.194Z,22.49
2023-01-13T02:49:28.545Z,22.55
2023-01-13T02:51:59.237Z,22.15
2023-01-13T02:54:28.599Z,22.41
2023-01-13T02:56:58.241Z,23.10
2023-01-13T02:59:27.952Z,23.17
2023-01-13T03:01:57.080Z,22.33
2023-01-13T03:04:43.199Z,22.59
2023-01-13T03:07:13.102Z,22.80
2023-01-13T03:09:44.091Z,23.19
2023-01-13T03:12:17.493Z,22.83
2023-01-13T03:14:44.755Z,23.20
2023-01-13T03:17:41.174Z,23.20
2023-01-13T03:20:37.672Z,23.60
2023-01-13T03:23:04.884Z,23.02
2023-01-13T03:25:36.062Z,23.45
2023-01-13T03:28:12.227Z,23.01
2023-01-13T03:30:41.064Z,23.30
2023-01-13T03:33:28.589Z,23.50
2023-01-13T03:35:58.537Z,23.17
2023-01-13T03:38:32.314Z,22.97
2023-01-13T03:41:01.761Z,23.20
2023-01-13T03:43:53.041Z,23.26
2023-01-13T03:46:24.783Z,23.68
2023-01-13T03:48:54.908Z,23.40
2023-01-13T03:51:25.866Z,23.34
2023-01-13T03:53:57.332Z,23.33
2023-01-13T03:56:25.592Z,23.89
2023-01-13T03:58:54.118Z,24.26
2023-01-13T04:01:37.459Z,23.32
2023-01-13T04:04:10.330Z,23.82
2023-01-13T04:06:49.887Z,24.01
2023-01-13T04:09:19.985Z,24.19
2023-01-13T04:11:52.224Z,23.57
2023-01-13T04:14:20.647Z,23.20
2023-01-13T04:16:48.433Z,23.68
2023-01-13T04:19:15.835Z,23.01
2023-01-13T04:21:43.056Z,23.46
2023-01-13T04:24:10.357Z,23.56
2023-01-13T04:26:37.763Z,23.77
2023-01-13T04:29:05.047Z,23.89
2023-01-13T04:31:32.231Z,23.33
2023-01-13T04:33:59.598Z,23.24
2023-01-13T04:36:27.773Z,23.90
2023-01-13T04:38:55.260Z,23.09
2023-01-13T04:41:22.540Z,23.26
2023-01-13T04:43:49.706Z,22.94
2023-01-13T04:46:16.965Z,23.18
2023-01-13T04:48:44.281Z,23.37
2023-01-13T04:51:11.775Z,23.02
2023-01-13T04:53:39.016Z,24.28
2023-01-13T04:56:06.355Z,23.32
2023-01-13T04:58:33.644Z,23.74
2023-01-13T05:01:00.879Z,23.81
2023-01-13T05:03:28.135Z,22.93
2023-01-13T05:05:55.387Z,23.06
2023-01-13T05:08:22.656Z,22.82
2023-01-13T05:10:49.914Z,23.06
2023-01-13T05:13:35.524Z,23.27
2023-01-13T05:16:22.942Z,23.63
2023-01-13T05:18:50.176Z,23.46
2023-01-13T05:21:36.105Z,24.26
2023-01-13T05:24:21.824Z,24.54
2023-01-13T05:26:49.183Z,23.74
2023-01-13T05:29:16.369Z,23.86
2023-01-13T05:31:43.719Z,23.54
2023-01-13T05:34:10.959Z,23.75
2023-01-13T05:36:38.243Z,24.67
2023-01-13T05:39:05.476Z,23.42
2023-01-13T05:41:51.083Z,25.03
2023-01-13T05:44:18.577Z,24.24
2023-01-13T05:46:45.878Z,24.11
2023-01-13T05:49:13.172Z,24.97
2023-01-13T05:51:40.352Z,24.83
2023-01-13T05:54:07.660Z,24.36
2023-01-13T05:56:35.586Z,24.74
2023-01-13T05:59:02.813Z,24.72
2023-01-13T06:01:30.121Z,24.46
2023-01-13T06:03:57.473Z,24.98
2023-01-13T06:06:24.705Z,24.68
2023-01-13T06:08:52.068Z,25.12
2023-01-13T06:11:19.370Z,24.91
2023-01-13T06:13:46.681Z,24.67
2023-01-13T06:16:14.032Z,25.02
2023-01-13T06:18:41.478Z,25.72
2023-01-13T06:21:08.712Z,24.99
2023-01-13T06:23:38.677Z,24.82
2023-01-13T06:26:12.196Z,24.53
2023-01-13T06:28:39.714Z,24.86
2023-01-13T06:31:08.942Z,24.64
2023-01-13T06:33:56.449Z,24.37
2023-01-13T06:36:25.279Z,24.76
2023-01-13T06:38:54.609Z,24.77
2023-01-13T06:41:42.278Z,24.70
2023-01-13T06:44:09.919Z,24.98
2023-01-13T06:46:37.312Z,25.24
2023-01-13T06:49:04.694Z,25.80
2023-01-13T06:51:31.920Z,25.58
2023-01-13T06:53:59.252Z,24.99
2023-01-13T06:56:26.529Z,25.83
2023-01-13T06:58:53.795Z,25.75
2023-01-13T07:01:21.129Z,25.45
2023-01-13T07:03:48.548Z,25.15
2023-01-13T07:06:15.764Z,24.61
2023-01-13T07:08:43.019Z,25.37
2023-01-13T07:11:10.295Z,25.49
2023-01-13T07:13:55.996Z,26.13
2023-01-13T07:16:24.449Z,25.78
2023-01-13T07:18:51.706Z,25.57
2023-01-13T07:21:20.106Z,26.28
2023-01-13T07:23:48.167Z,25.43
2023-01-13T07:26:15.790Z,25.82
2023-01-13T07:28:43.136Z,25.52
2023-01-13T07:31:14.999Z,25.87
2023-01-13T07:33:42.282Z,25.25
2023-01-13T07:36:09.701Z,25.22
2023-01-13T07:38:38.571Z,24.83
2023-01-13T07:41:24.666Z,24.68
2023-01-13T07:43:53.011Z,25.26
2023-01-13T07:46:20.248Z,24.79
2023-01-13T07:48:47.992Z,25.66
2023-01-13T07:51:15.250Z,24.72
2023-01-13T07:53:42.655Z,25.18
2023-01-13T07:56:10.219Z,24.60
2023-01-13T07:58:37.912Z,24.96
2023-01-13T08:01:09.576Z,25.72
2023-01-13T08:03:36.881Z,25.66
2023-01-13T08:06:04.993Z,26.31
2023-01-13T08:08:32.292Z,26.17
2023-01-13T08:11:00.327Z,26.55
2023-01-13T08:13:27.615Z,25.99
2023-01-13T08:15:59.834Z,26.43
2023-01-13T08:18:27.219Z,24.96
2023-01-13T08:20:55.012Z,25.22
2023-01-13T08:23:23.006Z,25.22
2023-01-13T08:25:50.697Z,24.68
2023-01-13T08:28:18.040Z,25.13
2023-01-13T08:30:45.510Z,24.43
2023-01-13T08:33:13.027Z,24.47
2023-01-13T08:35:40.781Z,24.87
2023-01-13T08:38:08.283Z,24.50
2023-01-13T08:40:35.729Z,24.40
2023-01-13T08:43:03.390Z,24.41
2023-01-13T08:45:31.064Z,24.21
2023-01-13T08:47:58.345Z,24.61
2023-01-13T08:50:25.647Z,24.63
2023-01-13T08:52:53.088Z,24.26
2023-01-13T08:55:20.411Z,24.50
2023-01-13T08:57:47.737Z,24.37
2023-01-13T09:00:17.220Z,24.54
2023-01-13T09:02:44.622Z,24.59
2023-01-13T09:05:11.924Z,25.01
2023-01-13T09:07:39.253Z,24.08
2023-01-13T09:10:07.219Z,25.28
2023-01-13T09:12:53.188Z,25.30
2023-01-13T09:15:21.691Z,24.71
2023-01-13T09:17:48.939Z,24.35
2023-01-13T09:20:16.310Z,24.48
2023-01-13T09:22:43.620Z,24.02
2023-01-13T09:25:12.568Z,25.04
2023-01-13T09:27:39.768Z,24.43
2023-01-13T09:30:07.840Z,24.74
2023-01-13T09:32:35.265Z,24.60
2023-01-13T09:35:02.931Z,24.30
2023-01-13T09:37:34.302Z,24.28
2023-01-13T09:40:02.244Z,25.23
2023-01-13T09:42:48.121Z,24.93
2023-01-13T09:45:21.600Z,24.81
2023-01-13T09:47:56.740Z,24.85
2023-01-13T09:50:44.068Z,24.82
2023-01-13T09:53:19.010Z,24.81
2023-01-13T09:55:46.366Z,24.43
2023-01-13T09:58:17.472Z,24.76
2023-01-13T10:01:01.011Z,24.25
2023-01-13T10:03:29.605Z,24.70
2023-01-13T10:05:59.638Z,24.49
2023-01-13T10:08:29.465Z,24.46
2023-01-13T10:11:21.257Z,24.71
2023-01-13T10:13:51.040Z,24.73
2023-01-13T10:16:29.691Z,24.99
2023-01-13T10:18:57.058Z,24.82
2023-01-13T10:21:27.135Z,24.90
2023-01-13T10:24:01.699Z,24.94
2023-01-13T10:26:39.793Z,24.44
2023-01-13T10:29:36.160Z,25.13
2023-01-13T10:32:03.603Z,24.22
2023-01-13T10:34:31.000Z,24.50
2023-01-13T10:37:03.428Z,24.10
2023-01-13T10:39:39.371Z,23.91
2023-01-13T10:42:10.807Z,24.16
2023-01-13T10:44:46.649Z,24.48
2023-01-13T10:47:21.736Z,24.10
2023-01-13T10:50:09.543Z,23.21
2023-01-13T10:52:43.480Z,24.23
2023-01-13T10:55:33.169Z,23.61
2023-01-13T10:58:12.562Z,23.51
2023-01-13T11:00:39.965Z,22.63
2023-01-13T11:03:13.634Z,23.03
2023-01-13T11:05:47.792Z,22.78
2023-01-13T11:08:17.424Z,23.39
2023-01-13T11:10:47.116Z,23.63
2023-01-13T11:13:21.899Z,23.25
2023-01-13T11:16:07.958Z,22.49
2023-01-13T11:18:41.092Z,23.65
2023-01-13T11:21:13.170Z,22.78
2023-01-13T11:23:43.817Z,23.50
2023-01-13T11:26:37.077Z,22.65
2023-01-13T11:29:09.922Z,23.01
2023-01-13T11:31:40.035Z,23.81
2023-01-13T11:34:27.695Z,23.54
2023-01-13T11:36:56.953Z,23.59
2023-01-13T11:39:42.860Z,23.46
2023-01-13T11:42:21.756Z,22.98
2023-01-13T11:45:01.953Z,23.97
2023-01-13T11:47:29.966Z,23.33
2023-01-13T11:49:57.219Z,23.47
2023-01-13T11:52:28.212Z,23.36
2023-01-13T11:55:03.191Z,23.12
2023-01-13T11:57:49.036Z,23.11
2023-01-13T12:00:36.616Z,23.14
2023-01-13T12:03:15.913Z,23.49
2023-01-13T12:05:49.555Z,23.33
2023-01-13T12:08:26.162Z,23.80
2023-01-13T12:10:59.221Z,23.61
2023-01-13T12:13:45.472Z,23.69
2023-01-13T12:16:12.687Z,23.47
2023-01-13T12:18:39.917Z,23.77
2023-01-13T12:21:13.354Z,22.86
2023-01-13T12:23:51.891Z,23.28
2023-01-13T12:26:19.266Z,23.13
2023-01-13T12:28:50.257Z,23.54
2023-01-13T12:31:19.134Z,23.18
2023-01-13T12:34:00.025Z,22.71
2023-01-13T12:36:45.488Z,22.79
2023-01-13T12:39:12.787Z,22.97
2023-01-13T12:42:04.025Z,23.31
2023-01-13T12:44:31.372Z,23.72
2023-01-13T12:46:59.456Z,22.84
2023-01-13T12:49:26.828Z,23.53
2023-01-13T12:51:56.842Z,23.45
2023-01-13T12:54:45.105Z,23.30
2023-01-13T12:57:24.746Z,22.88
2023-01-13T13:00:15.388Z,23.32
2023-01-13T13:02:44.173Z,23.28
2023-01-13T13:05:14.162Z,23.35
2023-01-13T13:08:01.675Z,22.88
2023-01-13T13:10:31.577Z,22.75
2023-01-13T13:13:18.419Z,22.75
2023-01-13T13:15:47.242Z,23.18
2023-01-13T13:18:17.565Z,23.89
2023-01-13T13:20:55.221Z,23.08
2023-01-13T13:23:28.617Z,22.95
2023-01-13T13:26:01.024Z,23.53
2023-01-13T13:28:33.332Z,22.39
2023-01-13T13:31:26.958Z,22.41
2023-01-13T13:34:07.178Z,22.69
2023-01-13T13:37:00.477Z,22.36
2023-01-13T13:40:08.687Z,22.51
2023-01-13T13:43:07.840Z,23.14
2023-01-13T13:45:53.807Z,22.73
2023-01-13T13:48:31.024Z,22.41
2023-01-13T13:51:02.372Z,22.71
2023-01-13T13:53:41.918Z,22.67
2023-01-13T13:56:16.968Z,23.02
2023-01-13T13:58:44.264Z,23.30
2023-01-13T14:01:37.839Z,22.98
2023-01-13T14:04:11.599Z,23.41
2023-01-13T14:06:48.953Z,22.10
2023-01-13T14:09:17.648Z,22.60
2023-01-13T14:11:53.869Z,22.43
2023-01-13T14:14:21.244Z,22.93
2023-01-13T14:16:51.729Z,22.27
2023-01-13T14:19:26.306Z,22.52
2023-01-13T14:21:53.757Z,22.88
2023-01-13T14:24:22.573Z,22.60
2023-01-13T14:26:53.249Z,22.61
2023-01-13T14:29:22.170Z,22.72
2023-01-13T14:31:50.626Z,22.96
2023-01-13T14:34:32.044Z,23.16
2023-01-13T14:37:01.319Z,22.47
2023-01-13T14:39:40.253Z,22.41
2023-01-13T14:42:14.298Z,22.25
2023-01-13T14:44:44.220Z,22.67
2023-01-13T14:47:32.270Z,22.65
2023-01-13T14:50:20.236Z,22.32
2023-01-13T14:52:52.658Z,22.62
2023-01-13T14:55:22.463Z,21.99
2023-01-13T14:57:49.812Z,22.90
2023-01-13T15:00:18.820Z,22.39
2023-01-13T15:02:59.759Z,22.66
2023-01-13T15:05:27.076Z,23.31
2023-01-13T15:07:54.269Z,22.90
2023-01-13T15:10:23.959Z,22.55
2023-01-13T15:12:52.883Z,23.09
2023-01-13T15:15:46.621Z,22.51
2023-01-13T15:18:15.697Z,22.36
2023-01-13T15:20:43.175Z,21.98
2023-01-13T15:23:11.060Z,22.60
2023-01-13T15:25:40.289Z,22.51
2023-01-13T15:28:14.460Z,22.66
2023-01-13T15:30:41.711Z,22.91
2023-01-13T15:33:10.572Z,22.98
2023-01-13T15:35:39.664Z,22.68
2023-01-13T15:38:10.365Z,22.71
2023-01-13T15:40:37.730Z,22.49
2023-01-13T15:43:23.329Z,23.13
2023-01-13T15:46:09.394Z,22.39
2023-01-13T15:48:36.674Z,22.95
2023-01-13T15:51:04.814Z,22.68
2023-01-13T15:53:37.007Z,22.89
2023-01-13T15:56:05.419Z,22.72
2023-01-13T15:58:32.659Z,22.46
2023-01-13T16:01:00.166Z,22.82
2023-01-13T16:03:27.446Z,22.54
2023-01-13T16:05:54.665Z,22.73
2023-01-13T16:08:23.969Z,22.52
2023-01-13T16:10:51.341Z,22.69
2023-01-13T16:13:18.536Z,22.51
2023-01-13T16:15:47.269Z,22.87
2023-01-13T16:18:16.294Z,22.67
2023-01-13T16:20:43.954Z,22.11
2023-01-13T16:23:12.156Z,22.23
2023-01-13T16:25:39.764Z,23.22
2023-01-13T16:28:07.001Z,22.73
2023-01-13T16:30:35.978Z,22.74
2023-01-13T16:33:03.679Z,23.33
2023-01-13T16:35:35.363Z,22.59
2023-01-13T16:38:02.898Z,22.91
2023-01-13T16:40:34.386Z,22.98
2023-01-13T16:43:03.597Z,22.75
2023-01-13T16:45:31.604Z,22.96
2023-01-13T16:47:58.922Z,22.85
2023-01-13T16:50:35.930Z,22.76
2023-01-13T16:53:04.441Z,23.34
2023-01-13T16:55:32.067Z,23.24
2023-01-13T16:57:59.550Z,23.18
2023-01-13T17:00:26.847Z,23.21
2023-01-13T17:02:54.101Z,22.75
2023-01-13T17:05:21.411Z,23.32
2023-01-13T17:07:48.790Z,22.75
2023-01-13T17:10:17.572Z,22.72
2023-01-13T17:12:44.898Z,23.40
2023-01-13T17:15:12.981Z,23.44
2023-01-13T17:17:41.237Z,22.76
2023-01-13T17:20:10.588Z,22.99
2023-01-13T17:22:37.835Z,22.85
2023-01-13T17:25:05.206Z,22.06
2023-01-13T17:27:32.554Z,22.57
2023-01-13T17:29:59.762Z,22.34
2023-01-13T17:32:27.036Z,23.09
2023-01-13T17:34:54.322Z,22.71
2023-01-13T17:37:21.683Z,22.85
2023-01-13T17:39:51.079Z,23.05
2023-01-13T17:42:18.397Z,22.51
2023-01-13T17:44:46.974Z,22.18
2023-01-13T17:47:14.648Z,22.38
2023-01-13T17:49:41.943Z,22.28
2023-01-13T17:52:09.458Z,22.48
2023-01-13T17:54:36.680Z,22.40
2023-01-13T17:57:03.975Z,22.30
2023-01-13T17:59:31.206Z,22.31
2023-01-13T18:01:58.636Z,22.73
2023-01-13T18:04:29.177Z,22.29
2023-01-13T18:06:59.557Z,22.49
2023-01-13T18:09:26.864Z,23.07
2023-01-13T18:11:54.134Z,22.64
2023-01-13T18:14:22.609Z,22.81
2023-01-13T18:16:49.906Z,22.41
2023-01-13T18:19:35.988Z,22.58
2023-01-13T18:22:21.640Z,22.40
2023-01-13T18:25:07.490Z,22.36
2023-01-13T18:27:35.936Z,22.75
2023-01-13T18:30:04.203Z,22.49
2023-01-13T18:32:33.578Z,22.87
2023-01-13T18:35:06.394Z,22.53
2023-01-13T18:37:38.878Z,22.86
2023-01-13T18:40:07.253Z,22.44
2023-01-13T18:42:54.417Z,22.47
2023-01-13T18:45:31.859Z,22.22
2023-01-13T18:48:00.852Z,22.33
2023-01-13T18:50:28.466Z,22.58
2023-01-13T18:52:55.883Z,22.07
2023-01-13T18:55:23.380Z,22.36
2023-01-13T18:57:50.919Z,22.39
2023-01-13T19:00:19.622Z,22.52
2023-01-13T19:02:47.594Z,22.46
2023-01-13T19:05:14.919Z,22.33
2023-01-13T19:07:43.498Z,22.27
2023-01-13T19:10:13.132Z,22.06
2023-01-13T19:12:40.543Z,22.03
2023-01-13T19:15:08.889Z,22.19
2023-01-13T19:17:36.341Z,22.08
2023-01-13T19:20:05.153Z,22.16
2023-01-13T19:22:33.518Z,22.36
2023-01-13T19:25:01.511Z,22.47
2023-01-13T19:27:28.863Z,22.43
2023-01-13T19:30:00.658Z,22.49
2023-01-13T19:32:30.946Z,21.99
2023-01-13T19:34:59.614Z,21.89
2023-01-13T19:37:31.607Z,22.30
2023-01-13T19:39:59.466Z,22.47
2023-01-13T19:42:45.550Z,22.53
2023-01-13T19:45:30.663Z,22.40
2023-01-13T19:47:59.306Z,22.33
2023-01-13T19:50:26.563Z,22.17
2023-01-13T19:52:53.923Z,22.14
2023-01-13T19:55:21.188Z,22.62
2023-01-13T19:57:48.528Z,22.23
2023-01-13T20:00:20.598Z,22.12
2023-01-13T20:02:49.679Z,22.37
2023-01-13T20:05:21.253Z,21.96
2023-01-13T20:07:49.903Z,22.22
2023-01-13T20:10:17.860Z,22.50
2023-01-13T20:12:45.403Z,22.58
2023-01-13T20:15:12.659Z,22.55
2023-01-13T20:17:41.497Z,22.37
2023-01-13T20:20:09.571Z,21.72
2023-01-13T20:22:37.548Z,22.78
2023-01-13T20:25:05.450Z,23.20
2023-01-13T20:27:32.891Z,22.91
2023-01-13T20:30:00.178Z,23.37
2023-01-13T20:32:27.484Z,21.86
2023-01-13T20:34:54.730Z,22.45
2023-01-13T20:37:22.873Z,22.92
2023-01-13T20:39:50.103Z,21.82
2023-01-13T20:42:29.539Z,22.44
2023-01-13T20:44:57.252Z,22.52
2023-01-13T20:47:25.203Z,22.46
2023-01-13T20:49:53.486Z,22.25
2023-01-13T20:52:20.847Z,23.11
2023-01-13T20:54:48.353Z,22.85
2023-01-13T20:57:15.729Z,22.51
2023-01-13T20:59:43.059Z,22.73
2023-01-13T21:02:14.461Z,22.31
2023-01-13T21:04:41.950Z,23.20
2023-01-13T21:07:09.649Z,22.62
2023-01-13T21:09:37.010Z,22.77
2023-01-13T21:12:23.057Z,23.46
2023-01-13T21:15:08.786Z,22.42
2023-01-13T21:17:54.574Z,22.84
2023-01-13T21:20:21.956Z,22.38
2023-01-13T21:22:49.436Z,23.23
2023-01-13T21:25:17.305Z,22.33
2023-01-13T21:27:44.551Z,22.28
2023-01-13T21:30:15.625Z,23.02
2023-01-13T21:32:43.653Z,22.74
2023-01-13T21:35:11.734Z,22.21
2023-01-13T21:37:39.727Z,22.83
2023-01-13T21:40:09.161Z,22.69
2023-01-13T21:42:54.839Z,22.40
2023-01-13T21:45:40.805Z,22.87
2023-01-13T21:48:08.226Z,22.53
2023-01-13T21:50:36.096Z,23.03
2023-01-13T21:53:03.350Z,23.04
2023-01-13T21:55:31.359Z,21.84
2023-01-13T21:58:11.096Z,22.50
2023-01-13T22:00:39.111Z,22.06
2023-01-13T22:03:07.746Z,22.42
2023-01-13T22:05:35.721Z,22.11
2023-01-13T22:08:03.491Z,22.50
2023-01-13T22:10:31.666Z,22.60
2023-01-13T22:13:00.392Z,22.81
2023-01-13T22:15:29.259Z,22.79
2023-01-13T22:17:56.522Z,22.77
2023-01-13T22:20:24.157Z,22.70
2023-01-13T22:22:51.407Z,22.31
2023-01-13T22:25:20.264Z,23.02
2023-01-13T22:27:48.504Z,23.36
2023-01-13T22:30:18.365Z,23.21
2023-01-13T22:32:46.090Z,23.27
2023-01-13T22:35:14.067Z,22.59
2023-01-13T22:37:42.053Z,22.75
2023-01-13T22:40:10.642Z,22.64
2023-01-13T22:42:38.706Z,23.13
2023-01-13T22:45:10.813Z,22.35
2023-01-13T22:47:38.485Z,23.28
2023-01-13T22:50:06.593Z,22.79
2023-01-13T22:52:34.743Z,22.50
2023-01-13T22:55:02.074Z,23.23
2023-01-13T22:57:36.321Z,23.20
2023-01-13T23:00:06.469Z,23.42
2023-01-13T23:02:34.655Z,23.28
2023-01-13T23:05:01.987Z,23.43
2023-01-13T23:07:30.063Z,24.04
2023-01-13T23:09:57.324Z,23.00
2023-01-13T23:12:24.516Z,23.77
2023-01-13T23:14:51.897Z,23.78
2023-01-13T23:17:19.113Z,23.77
2023-01-13T23:19:46.417Z,23.62
2023-01-13T23:22:15.859Z,23.65
2023-01-13T23:24:43.117Z,23.30
2023-01-13T23:27:10.341Z,23.48
2023-01-13T23:29:37.913Z,23.43
2023-01-13T23:32:05.320Z,22.74
2023-01-13T23:34:35.185Z,23.44
2023-01-13T23:37:02.570Z,23.08
2023-01-13T23:39:29.772Z,23.39
2023-01-13T23:41:57.170Z,23.11
2023-01-13T23:44:24.449Z,23.33
2023-01-13T23:46:51.684Z,23.48
2023-01-13T23:49:19.280Z,23.23
2023-01-13T23:51:49.520Z,23.12
2023-01-13T23:54:17.135Z,23.14
2023-01-13T23:56:44.366Z,23.00
2023-01-13T23:59:11.726Z,23.32
